Lakemont, NY (14857)

4:00 AM EST on February 09, 2016 (GMT -0500)
Lakemont | | Change Station
CLOSE
Current Station
Personal Weather Station
Location: Dundee, NY
Elevation: 517 ft
Nearby Weather Stations

Elev 517 ft 42.51 °N, 76.92 °W | Updated 4 minutes ago

Overcast
Overcast
32.8 °F
Feels Like 33 °F
N
2.0
Wind Variable Wind from SSE
Gusts 2.0 mph

Today
High -- | Low -- °F
--% Chance of Precip.
Yesterday
High -- | Low -- °F
Precip. -- in
Pressure 29.55 in
Visibility 10.0 miles
Clouds Overcast 1400 ft
Windchill 33 °F
Dew Point 29 °F
Humidity 86%
Rainfall 0.00 in
Snow Depth Not available.
7:13 AM 5:31 PM
New Moon, 1% visible
METAR KPEO 090853Z AUTO 14007KT 10SM OVC014 00/M02 A2952 RMK AO2 SLP006 60000 T00001022 56016 TSNO
Pressure 29.55 in
Visibility 10.0 miles
Clouds Overcast 1400 ft
Windchill 33 °F
Dew Point 29 °F
Humidity 86%
Rainfall 0.00 in
Snow Depth Not available.
7:13 AM 5:31 PM
New Moon, 1% visible
METAR KPEO 090853Z AUTO 14007KT 10SM OVC014 00/M02 A2952 RMK AO2 SLP006 60000 T00001022 56016 TSNO

10-Day Weather Forecast

Almanac

Astronomy

Feb. 09, 2016 Rise Set
Actual Time
Civil Twilight
Nautical Twilight
Astronomical Twilight
Moon
Length of Visible Light
Length of Day
Tomorrow will be .
, % of the Moon is Illuminated

Today's Extremes

State Highs State Lows

Community

WunderPhotos

Upload Photos

1,891,571 photos uploaded!

WunderBlog® & News

Nearby

Air Quality

  Air Quality AQ Index Pollutant
Not available.

Snow Depth

Station Depth Elevation

Earthquake Activity

City Distance Mag. Time & Date
Minimum magnitude displayed is 2.5.

Coastal Water Temperatures

Place Temperature

Stations

Nearby Weather Stations

Station Location Temp. Windchill Dew Point Humidity Wind Precip. Elev Updated Type
                   

Watches & Warnings

There are currently no watches in effect.